Time;durP1;ratioP1;P1;durP2;ratioP2;P2;SDS_P1;SDS_P2;PMS_P1;PMS_P2;Temp;Humidity;BMP_temperature;BMP_pressure;BME280_temperature;BME280_humidity;BME280_pressure;Samples;Min_cycle;Max_cycle;Signal;HPM_P1;HPM_P2
2023/03/29 00:01:32;;;;;;;6.18;1.40;;;;;;;4.63;95.38;101037.31;5207527;28;20041;-77
2023/03/29 00:04:03;;;;;;;5.38;1.60;;;;;;;4.55;95.25;101029.59;5227187;28;20016;-76
2023/03/29 00:06:34;;;;;;;4.97;1.58;;;;;;;4.59;96.25;101023.53;5211223;28;20089;-76
2023/03/29 00:09:04;;;;;;;6.45;1.52;;;;;;;4.61;96.01;101029.56;5213922;28;20024;-76
2023/03/29 00:11:35;;;;;;;3.95;1.50;;;;;;;4.63;95.99;101022.66;5212702;28;20485;-77
2023/03/29 00:14:05;;;;;;;7.53;1.67;;;;;;;4.63;95.58;101022.66;5205290;28;20456;-77
2023/03/29 00:16:36;;;;;;;7.55;2.10;;;;;;;4.66;96.08;101011.44;5237362;28;20086;-77
2023/03/29 00:19:06;;;;;;;4.47;1.60;;;;;;;4.65;95.53;101010.56;5213419;28;20036;-78
2023/03/29 00:21:36;;;;;;;5.65;1.75;;;;;;;4.62;95.42;101010.56;5223846;28;20052;-77
2023/03/29 00:24:07;;;;;;;3.97;1.48;;;;;;;4.64;95.14;101008.84;5249164;22;20045;-73
2023/03/29 00:26:37;;;;;;;6.35;1.88;;;;;;;4.68;94.61;101005.38;5209072;28;20087;-73
2023/03/29 00:29:08;;;;;;;3.63;1.50;;;;;;;4.70;94.51;101003.66;5211055;28;20531;-73
2023/03/29 00:31:38;;;;;;;4.15;1.48;;;;;;;4.65;94.77;101005.38;5212631;28;20033;-73
2023/03/29 00:34:09;;;;;;;7.53;1.40;;;;;;;4.63;94.69;100996.75;5210937;28;20028;-73
2023/03/29 00:36:39;;;;;;;4.53;1.65;;;;;;;4.51;94.55;101004.59;5206478;28;20033;-74
2023/03/29 00:39:10;;;;;;;6.65;1.55;;;;;;;4.59;94.64;100994.19;5209318;28;20021;-73
2023/03/29 00:41:40;;;;;;;5.20;1.67;;;;;;;4.62;94.24;100994.19;5208562;28;20395;-73
2023/03/29 00:44:48;;;;;;;3.40;1.30;;;;;;;4.48;94.65;100996.81;5213478;28;20021;-72
2023/03/29 00:47:24;;;;;;;4.28;1.70;;;;;;;4.42;94.71;101007.22;5211420;28;20020;-73
2023/03/29 00:50:01;;;;;;;9.50;1.88;;;;;;;4.58;94.30;100985.56;5211926;28;20028;-73
2023/03/29 00:52:34;;;;;;;5.53;1.63;;;;;;;4.63;94.41;100985.56;5211789;28;20055;-74
2023/03/29 00:55:09;;;;;;;6.25;1.73;;;;;;;4.67;92.65;100980.34;5203602;28;20831;-73
2023/03/29 00:57:42;;;;;;;;;;;;;;;4.48;92.75;100985.63;5199753;28;20025;-74
2023/03/29 01:00:17;;;;;;;6.88;1.92;;;;;;;4.66;92.64;100973.44;5208587;28;19920;-72
2023/03/29 01:02:53;;;;;;;5.07;1.95;;;;;;;4.73;91.82;100971.69;5209214;28;20047;-73
2023/03/29 01:05:36;;;;;;;3.97;1.55;;;;;;;4.76;91.58;100966.47;5213026;28;20032;-73
2023/03/29 01:08:30;;;;;;;3.08;1.50;;;;;;;4.66;92.08;100967.44;5206897;28;20043;-74
2023/03/29 01:11:14;;;;;;;4.97;1.58;;;;;;;4.72;92.38;100969.97;5212783;28;20566;-73
2023/03/29 01:13:58;;;;;;;4.97;1.65;;;;;;;4.64;91.51;100962.25;5204581;28;20021;-72
2023/03/29 01:16:31;;;;;;;4.35;1.40;;;;;;;4.65;92.36;100956.19;5208975;28;20029;-73
2023/03/29 01:19:06;;;;;;;3.47;1.88;;;;;;;4.45;91.49;100944.25;5210456;28;20114;-73
2023/03/29 01:21:46;;;;;;;5.18;1.50;;;;;;;4.42;92.56;100950.28;5203710;28;20029;-74
2023/03/29 01:24:31;;;;;;;6.03;1.42;;;;;;;4.48;92.44;100939.91;5207293;28;20072;-73
2023/03/29 01:27:14;;;;;;;5.13;1.70;;;;;;;4.48;91.47;100934.72;5208795;28;20120;-73
2023/03/29 01:29:49;;;;;;;2.92;1.17;;;;;;;4.34;91.93;100941.72;5208361;28;20491;-73
2023/03/29 01:32:51;;;;;;;5.43;2.30;;;;;;;4.27;93.81;100934.00;5204771;28;20025;-73
2023/03/29 01:35:47;;;;;;;2.83;1.15;;;;;;;4.42;92.50;100931.31;5205699;28;20419;-73
2023/03/29 01:38:30;;;;;;;3.95;1.35;;;;;;;4.43;91.13;100936.50;5204920;28;20075;-73
2023/03/29 01:41:02;;;;;;;6.10;1.60;;;;;;;4.30;92.72;100919.28;5211533;28;20025;-73
2023/03/29 01:43:57;;;;;;;3.92;1.80;;;;;;;4.28;92.40;100923.63;5205407;28;20037;-73
2023/03/29 01:46:44;;;;;;;5.40;1.77;;;;;;;4.21;93.06;100921.94;5210091;28;20116;-73
2023/03/29 01:49:24;;;;;;;5.10;1.80;;;;;;;4.43;93.30;100917.53;5201162;28;20032;-73
2023/03/29 01:52:02;;;;;;;5.13;1.20;;;;;;;4.53;91.70;100903.66;5211378;28;20071;-73
2023/03/29 01:54:45;;;;;;;4.35;1.30;;;;;;;4.31;92.53;100907.25;5208088;28;20025;-73
2023/03/29 01:57:18;;;;;;;5.32;1.75;;;;;;;4.36;93.35;100906.34;5206052;28;20026;-71
2023/03/29 01:59:52;;;;;;;7.82;2.00;;;;;;;4.23;92.52;100906.41;5209405;28;20025;-73
2023/03/29 02:02:26;;;;;;;2.72;1.70;;;;;;;4.17;94.52;100907.31;5206646;28;20364;-74
2023/03/29 02:04:58;;;;;;;2.50;1.35;;;;;;;4.21;92.49;100897.78;5207411;28;20021;-73
2023/03/29 02:07:31;;;;;;;8.15;1.55;;;;;;;4.20;92.90;100899.53;5206117;28;20021;-73
2023/03/29 02:10:03;;;;;;;4.10;1.42;;;;;;;3.92;94.41;100905.69;5210882;28;20070;-74
2023/03/29 02:12:34;;;;;;;5.63;1.75;;;;;;;3.94;93.97;100903.94;5207136;28;20056;-72
2023/03/29 02:15:10;;;;;;;3.35;1.45;;;;;;;3.89;93.67;100900.53;5209788;28;20012;-73
2023/03/29 02:17:42;;;;;;;6.85;1.45;;;;;;;3.74;95.37;100904.88;5203585;28;20049;-73
2023/03/29 02:20:21;;;;;;;4.50;1.30;;;;;;;3.79;95.99;100908.31;5206824;28;20049;-73
2023/03/29 02:23:07;;;;;;;4.18;1.55;;;;;;;3.84;94.35;100897.09;5207181;28;20040;-72
2023/03/29 02:25:37;;;;;;;6.03;1.30;;;;;;;3.80;94.59;100892.78;5203703;28;20021;-72
2023/03/29 02:28:08;;;;;;;5.60;1.38;;;;;;;3.92;93.99;100897.94;5204792;28;20411;-72
2023/03/29 02:31:01;;;;;;;3.45;1.45;;;;;;;3.84;92.41;100891.94;5207587;28;20029;-73
2023/03/29 02:33:45;;;;;;;2.13;1.13;;;;;;;3.89;90.57;100876.38;5207473;28;20399;-73
2023/03/29 02:36:28;;;;;;;4.20;1.25;;;;;;;3.96;93.00;100876.34;5208503;28;20480;-72
2023/03/29 02:39:03;;;;;;;4.20;1.35;;;;;;;3.74;93.92;100886.78;5209660;28;20601;-73
2023/03/29 02:41:36;;;;;;;4.10;1.52;;;;;;;3.75;94.28;100880.78;5206012;28;20115;-73
2023/03/29 02:44:12;;;;;;;2.25;1.35;;;;;;;3.75;94.56;100884.19;5205432;28;20033;-73
2023/03/29 02:46:44;;;;;;;4.47;1.27;;;;;;;3.79;94.21;100882.47;5207582;28;20025;-72
2023/03/29 02:49:15;;;;;;;5.22;1.27;;;;;;;3.80;94.19;100871.28;5209190;28;20029;-73
2023/03/29 02:51:50;;;;;;;4.18;1.38;;;;;;;3.98;93.51;100869.44;5209275;28;20021;-74
2023/03/29 02:54:24;;;;;;;4.07;1.70;;;;;;;4.16;91.03;100866.78;5207799;28;20029;-73
2023/03/29 02:56:57;;;;;;;4.13;1.40;;;;;;;4.40;90.04;100855.44;5206503;28;20479;-73
2023/03/29 02:59:32;;;;;;;5.55;1.88;;;;;;;4.53;89.19;100847.59;5208063;28;20483;-74
2023/03/29 03:02:04;;;;;;;6.28;1.45;;;;;;;4.66;89.38;100841.44;5210348;28;20057;-74
2023/03/29 03:04:34;;;;;;;4.63;1.40;;;;;;;4.83;88.23;100842.16;5208130;28;20164;-73
2023/03/29 03:07:04;;;;;;;4.55;1.50;;;;;;;5.00;87.41;100831.69;5210054;28;20510;-74
2023/03/29 03:09:35;;;;;;;3.38;1.60;;;;;;;5.12;88.28;100834.16;5204861;28;20029;-74
2023/03/29 03:12:06;;;;;;;4.10;1.70;;;;;;;5.20;88.21;100838.41;5209776;28;20021;-73
2023/03/29 03:14:36;;;;;;;3.55;1.52;;;;;;;5.24;87.84;100837.50;5203946;28;20387;-73
2023/03/29 03:17:07;;;;;;;3.90;1.50;;;;;;;5.34;87.63;100831.31;5210869;28;20033;-73
2023/03/29 03:19:37;;;;;;;3.97;1.38;;;;;;;5.38;87.69;100826.09;5206181;28;20025;-74
2023/03/29 03:22:08;;;;;;;5.43;1.40;;;;;;;5.38;88.38;100818.31;5209987;28;20100;-71
2023/03/29 03:24:39;;;;;;;2.97;1.20;;;;;;;5.26;88.80;100827.97;5206557;28;20152;-73
2023/03/29 03:27:09;;;;;;;3.33;1.38;;;;;;;5.23;89.05;100827.13;5199849;28;20488;-73
2023/03/29 03:29:40;;;;;;;3.70;1.45;;;;;;;5.32;88.87;100824.47;5208232;28;20073;-73
2023/03/29 03:32:11;;;;;;;4.10;1.42;;;;;;;5.29;87.94;100825.34;5209795;28;20021;-73
2023/03/29 03:34:41;;;;;;;3.85;1.70;;;;;;;5.35;89.19;100827.00;5207807;28;20148;-73
2023/03/29 03:37:11;;;;;;;4.95;1.80;;;;;;;5.45;88.95;100822.59;5207843;28;20384;-72
2023/03/29 03:39:42;;;;;;;6.40;2.00;;;;;;;5.37;90.22;100831.31;5209946;28;20399;-73
2023/03/29 03:42:12;;;;;;;4.47;1.70;;;;;;;5.49;89.75;100829.44;5212591;28;20069;-73
2023/03/29 03:44:43;;;;;;;6.25;2.10;;;;;;;5.50;90.31;100827.69;5212707;28;20055;-73
2023/03/29 03:47:14;;;;;;;3.05;1.30;;;;;;;5.50;91.42;100825.09;5204976;28;20024;-73
2023/03/29 03:49:44;;;;;;;6.68;1.60;;;;;;;5.41;92.21;100830.41;5207004;28;20025;-73
2023/03/29 03:52:15;;;;;;;4.15;1.98;;;;;;;5.38;92.74;100831.28;5213515;28;20113;-73
2023/03/29 03:54:46;;;;;;;4.95;1.65;;;;;;;5.35;93.96;100825.25;5210362;28;20092;-73
2023/03/29 03:57:17;;;;;;;4.03;1.83;;;;;;;5.50;94.03;100810.41;5210377;28;20026;-74
2023/03/29 03:59:47;;;;;;;4.28;1.83;;;;;;;5.39;94.99;100811.41;5211168;28;20017;-70
2023/03/29 04:02:19;;;;;;;3.58;1.95;;;;;;;5.32;96.35;100799.38;5214384;28;20048;-73
2023/03/29 04:04:49;;;;;;;6.38;2.22;;;;;;;5.41;95.35;100801.91;5213656;28;20017;-73
2023/03/29 04:07:19;;;;;;;4.70;1.85;;;;;;;5.42;96.00;100806.19;5211964;28;20021;-73
2023/03/29 04:09:51;;;;;;;8.05;2.22;;;;;;;5.39;96.14;100804.50;5212766;28;20056;-73
2023/03/29 04:12:22;;;;;;;6.50;1.98;;;;;;;5.33;96.48;100795.91;5214181;28;20501;-73
2023/03/29 04:14:52;;;;;;;4.72;2.40;;;;;;;5.34;96.73;100801.97;5213157;28;20025;-73
2023/03/29 04:17:22;;;;;;;5.72;2.45;;;;;;;5.30;97.65;100793.38;5212327;28;20029;-73
2023/03/29 04:19:53;;;;;;;4.82;2.22;;;;;;;5.32;98.54;100793.38;5213396;28;20079;-73
2023/03/29 04:22:26;;;;;;;4.28;2.22;;;;;;;5.26;98.38;100783.91;5203511;28;20029;-74
2023/03/29 04:24:56;;;;;;;6.22;2.90;;;;;;;5.22;98.47;100777.06;5206719;28;20025;-73
2023/03/29 04:27:26;;;;;;;5.05;2.50;;;;;;;5.14;99.13;100778.88;5215241;28;20052;-73
2023/03/29 04:29:57;;;;;;;6.53;2.80;;;;;;;5.28;99.51;100773.53;5215027;28;20569;-73
2023/03/29 04:32:27;;;;;;;4.78;2.33;;;;;;;5.22;99.37;100771.00;5213180;28;20029;-74
2023/03/29 04:34:57;;;;;;;5.32;2.42;;;;;;;5.25;100.00;100765.78;5209474;28;20704;-73
2023/03/29 04:37:28;;;;;;;5.30;2.65;;;;;;;5.17;100.00;100768.47;5210816;28;20063;-72
2023/03/29 04:40:03;;;;;;;6.25;2.80;;;;;;;5.21;100.00;100767.56;5212456;28;20035;-71
2023/03/29 04:42:34;;;;;;;5.20;2.55;;;;;;;5.14;100.00;100765.91;5211250;28;20032;-71
2023/03/29 04:45:05;;;;;;;5.35;2.72;;;;;;;5.17;100.00;100762.44;5211175;28;20195;-71
2023/03/29 04:47:38;;;;;;;6.35;2.70;;;;;;;5.12;100.00;100762.47;5208657;28;20021;-71
2023/03/29 04:50:09;;;;;;;6.45;2.97;;;;;;;5.09;100.00;100770.28;5209215;28;20052;-70
2023/03/29 04:52:39;;;;;;;6.32;3.03;;;;;;;5.24;100.00;100759.78;5212787;28;20188;-72
2023/03/29 04:55:10;;;;;;;4.45;2.90;;;;;;;5.17;100.00;100757.25;5208206;28;20546;-71
2023/03/29 04:57:43;;;;;;;6.32;3.35;;;;;;;5.22;100.00;100753.75;5212322;28;20024;-71
2023/03/29 05:00:14;;;;;;;7.50;3.20;;;;;;;5.27;100.00;100754.53;5212404;28;20152;-72
2023/03/29 05:02:45;;;;;;;12.50;2.80;;;;;;;5.30;100.00;100758.84;5211509;28;20468;-70
2023/03/29 05:05:15;;;;;;;6.55;3.50;;;;;;;5.23;100.00;100754.59;5208977;28;20033;-70
2023/03/29 05:07:45;;;;;;;5.03;2.63;;;;;;;5.23;100.00;100757.19;5209450;28;20035;-71
2023/03/29 05:10:16;;;;;;;5.95;3.13;;;;;;;5.28;100.00;100756.25;5212173;28;20450;-71
2023/03/29 05:12:49;;;;;;;4.57;2.63;;;;;;;5.28;100.00;100751.06;5209996;28;20021;-72
2023/03/29 05:15:20;;;;;;;5.38;2.95;;;;;;;5.37;100.00;100750.13;5211389;28;20068;-69
2023/03/29 05:17:50;;;;;;;6.03;2.78;;;;;;;5.39;100.00;100755.25;5207284;28;20033;-71
2023/03/29 05:20:21;;;;;;;4.95;2.95;;;;;;;5.46;100.00;100754.31;5205665;28;20108;-72
2023/03/29 05:22:52;;;;;;;7.18;3.67;;;;;;;5.43;100.00;100750.91;5210796;28;20513;-71
2023/03/29 05:25:22;;;;;;;5.10;2.72;;;;;;;5.38;100.00;100752.69;5209409;28;20068;-71
2023/03/29 05:27:52;;;;;;;6.53;2.55;;;;;;;5.37;100.00;100753.56;5208286;28;20033;-71
2023/03/29 05:30:23;;;;;;;7.03;2.50;;;;;;;5.41;100.00;100758.69;5211732;28;20439;-72
2023/03/29 05:32:53;;;;;;;5.72;2.70;;;;;;;5.39;100.00;100749.22;5206244;28;20083;-72
2023/03/29 05:35:25;;;;;;;4.85;2.70;;;;;;;5.28;100.00;100750.19;5203960;28;20036;-71
2023/03/29 05:37:55;;;;;;;5.25;2.85;;;;;;;5.24;100.00;100749.41;5207340;28;20029;-71
2023/03/29 05:40:25;;;;;;;4.72;2.60;;;;;;;5.35;100.00;100747.53;5209932;28;20691;-70
2023/03/29 05:42:56;;;;;;;7.47;2.83;;;;;;;5.33;100.00;100748.44;5209850;28;20070;-71
2023/03/29 05:45:28;;;;;;;5.45;2.47;;;;;;;5.22;100.00;100745.97;5208174;28;20452;-71
2023/03/29 05:47:58;;;;;;;6.50;2.72;;;;;;;5.32;100.00;100751.91;5203700;28;20543;-71
2023/03/29 05:50:29;;;;;;;7.07;2.70;;;;;;;5.40;100.00;100746.59;5205887;28;20033;-70
2023/03/29 05:52:59;;;;;;;7.43;3.30;;;;;;;5.50;100.00;100742.16;5207984;28;20462;-71
2023/03/29 05:55:29;;;;;;;4.35;2.58;;;;;;;5.53;100.00;100736.94;5208287;28;20725;-71
2023/03/29 05:57:59;;;;;;;6.15;3.08;;;;;;;5.52;100.00;100732.63;5208221;28;20025;-72
2023/03/29 06:00:33;;;;;;;7.80;3.38;;;;;;;5.55;100.00;100737.81;5215960;28;20036;-71
2023/03/29 06:03:04;;;;;;;5.78;3.22;;;;;;;5.70;100.00;100734.97;5205036;28;20479;-71
2023/03/29 06:05:35;;;;;;;7.63;3.03;;;;;;;5.78;100.00;100733.16;5208948;28;20079;-69
2023/03/29 06:08:08;;;;;;;6.57;3.10;;;;;;;5.90;100.00;100735.63;5202492;28;20132;-70
2023/03/29 06:10:39;;;;;;;5.25;3.00;;;;;;;5.93;100.00;100731.22;5209082;28;20425;-71
2023/03/29 06:13:10;;;;;;;7.03;3.33;;;;;;;5.89;100.00;100731.31;5207486;28;20454;-72
2023/03/29 06:15:41;;;;;;;5.38;2.80;;;;;;;6.06;100.00;100729.34;5203480;28;20037;-71
2023/03/29 06:18:11;;;;;;;8.13;3.42;;;;;;;6.06;100.00;100734.53;5203643;28;20540;-71
2023/03/29 06:20:41;;;;;;;5.32;3.00;;;;;;;6.13;100.00;100741.31;5204160;28;20344;-71
2023/03/29 06:23:12;;;;;;;7.10;3.35;;;;;;;6.26;100.00;100735.06;5202517;28;20029;-68
2023/03/29 06:25:43;;;;;;;6.00;3.08;;;;;;;6.14;99.41;100736.13;5202755;28;20017;-71
2023/03/29 06:28:14;;;;;;;6.85;3.13;;;;;;;6.34;100.00;100726.28;5202983;28;20033;-72
2023/03/29 06:30:44;;;;;;;7.75;3.03;;;;;;;6.45;100.00;100728.69;5203220;28;20021;-69
2023/03/29 06:33:19;;;;;;;5.72;2.97;;;;;;;6.45;99.18;100728.69;5200536;28;20059;-71
2023/03/29 06:35:49;;;;;;;6.20;3.33;;;;;;;6.50;99.77;100732.06;5201954;28;20022;-72
2023/03/29 06:38:20;;;;;;;6.78;2.60;;;;;;;6.47;98.38;100742.50;5205354;28;20474;-73
2023/03/29 06:40:51;;;;;;;6.05;3.13;;;;;;;6.57;96.60;100728.50;5208698;28;20102;-72
2023/03/29 06:43:21;;;;;;;5.85;3.00;;;;;;;6.63;96.69;100733.56;5209969;28;20036;-71
2023/03/29 06:45:52;;;;;;;7.10;3.05;;;;;;;6.73;97.70;100729.94;5207298;28;20466;-70
2023/03/29 06:48:23;;;;;;;5.43;3.15;;;;;;;6.69;97.11;100729.13;5213643;28;20033;-73
2023/03/29 06:50:53;;;;;;;6.22;3.00;;;;;;;6.87;98.02;100725.34;5205785;28;20106;-71
2023/03/29 06:53:25;;;;;;;4.75;2.90;;;;;;;7.03;96.76;100734.56;5200026;28;20029;-71
2023/03/29 06:55:55;;;;;;;6.07;2.90;;;;;;;6.97;95.29;100730.34;5201687;28;20030;-71
2023/03/29 06:58:26;;;;;;;7.07;3.08;;;;;;;6.98;96.24;100726.88;5202479;28;20036;-72
2023/03/29 07:01:01;;;;;;;6.75;2.78;;;;;;;7.00;96.09;100725.09;5205168;28;20033;-70
2023/03/29 07:03:33;;;;;;;5.22;3.05;;;;;;;7.07;96.58;100731.88;5201412;28;20026;-72
2023/03/29 07:06:08;;;;;;;5.80;3.20;;;;;;;7.08;97.08;100732.75;5206394;28;20053;-72
2023/03/29 07:08:42;;;;;;;4.25;2.72;;;;;;;7.11;96.56;100727.50;5199575;28;20862;-72
2023/03/29 07:11:14;;;;;;;5.68;2.80;;;;;;;7.25;95.67;100730.69;5200067;28;20107;-71
2023/03/29 07:13:45;;;;;;;7.57;3.58;;;;;;;7.29;95.14;100735.78;5199442;28;20029;-71
2023/03/29 07:16:17;;;;;;;7.03;3.15;;;;;;;7.47;95.78;100731.06;5183240;28;20061;-71
2023/03/29 07:18:47;;;;;;;5.40;2.65;;;;;;;7.69;94.18;100724.53;5201407;28;20029;-71
2023/03/29 07:21:19;;;;;;;6.10;2.83;;;;;;;7.78;92.89;100724.34;5201293;28;20022;-73
2023/03/29 07:23:51;;;;;;;4.60;2.80;;;;;;;7.95;92.98;100727.44;5206612;28;20514;-71
2023/03/29 07:26:21;;;;;;;5.82;2.72;;;;;;;8.03;91.70;100725.50;5204608;28;20079;-71
2023/03/29 07:28:52;;;;;;;6.13;2.85;;;;;;;8.08;90.94;100718.41;5202847;28;20030;-72
2023/03/29 07:31:22;;;;;;;5.85;2.53;;;;;;;8.22;90.34;100716.38;5200222;28;20661;-71
2023/03/29 07:33:52;;;;;;;6.35;2.50;;;;;;;8.56;89.44;100712.06;5201367;28;20582;-73
2023/03/29 07:36:23;;;;;;;4.93;2.67;;;;;;;10.42;83.95;100702.25;5208086;28;20036;-73
2023/03/29 07:38:55;;;;;;;10.10;2.60;;;;;;;10.66;80.76;100696.19;5204724;28;20029;-71
2023/03/29 07:41:26;;;;;;;4.38;2.38;;;;;;;11.75;77.58;100694.78;5205869;28;20036;-74
2023/03/29 07:43:56;;;;;;;5.72;2.58;;;;;;;12.61;73.71;100689.50;5210822;28;20025;-71
2023/03/29 07:46:28;;;;;;;6.82;2.65;;;;;;;12.60;71.45;100693.06;5206528;28;20080;-73
2023/03/29 07:48:58;;;;;;;5.07;2.50;;;;;;;13.57;67.17;100690.50;5199736;28;20028;-73
2023/03/29 07:51:28;;;;;;;8.13;3.20;;;;;;;13.77;67.15;100693.06;5206587;28;20479;-73
2023/03/29 07:53:59;;;;;;;4.50;2.00;;;;;;;13.58;66.00;100686.94;5208066;28;20025;-72
2023/03/29 07:56:29;;;;;;;4.45;2.45;;;;;;;13.57;66.17;100690.50;5209575;28;20021;-73
2023/03/29 07:58:59;;;;;;;4.85;2.10;;;;;;;12.91;70.28;100698.72;5207972;28;20025;-71
2023/03/29 08:01:30;;;;;;;6.03;2.50;;;;;;;12.53;71.07;100693.38;5209948;28;20033;-73
2023/03/29 08:04:00;;;;;;;4.32;2.13;;;;;;;12.29;73.24;100697.00;5205307;28;20533;-72
2023/03/29 08:06:31;;;;;;;7.13;2.70;;;;;;;12.07;73.35;100702.25;5198896;28;20033;-73
2023/03/29 08:09:01;;;;;;;5.93;2.35;;;;;;;11.83;73.54;100692.75;5195571;28;20025;-72
2023/03/29 08:11:31;;;;;;;4.32;2.20;;;;;;;11.21;75.79;100691.59;5200560;28;20029;-74
2023/03/29 08:14:02;;;;;;;4.88;2.20;;;;;;;11.04;77.47;100693.09;5198407;28;20025;-72
2023/03/29 08:16:32;;;;;;;5.00;2.33;;;;;;;10.63;76.91;100696.28;5200670;28;20090;-71
2023/03/29 08:19:03;;;;;;;3.67;2.30;;;;;;;10.44;77.58;100699.56;5199624;28;20040;-72
2023/03/29 08:21:34;;;;;;;7.13;2.60;;;;;;;10.33;78.69;100694.69;5199334;28;21031;-73
2023/03/29 08:24:05;;;;;;;6.32;2.42;;;;;;;10.24;79.12;100697.63;5198992;28;20036;-72
2023/03/29 08:26:35;;;;;;;4.60;2.35;;;;;;;10.08;79.59;100703.34;5200129;28;20025;-71
2023/03/29 08:29:07;;;;;;;6.30;2.63;;;;;;;9.86;79.16;100695.28;5205614;28;20076;-73
2023/03/29 08:31:37;;;;;;;6.55;2.50;;;;;;;9.74;80.47;100700.91;5202959;28;20025;-71
2023/03/29 08:34:07;;;;;;;3.95;2.13;;;;;;;9.63;79.80;100696.91;5206277;28;20036;-71
2023/03/29 08:36:39;;;;;;;4.70;2.15;;;;;;;9.74;80.24;100687.88;5207321;28;20033;-70
2023/03/29 08:39:09;;;;;;;5.30;2.70;;;;;;;9.37;82.18;100689.00;5201209;28;20026;-72
2023/03/29 08:41:48;;;;;;;5.82;2.13;;;;;;;9.58;82.30;100693.56;5204391;28;20025;-72
2023/03/29 08:44:50;;;;;;;3.83;2.20;;;;;;;9.49;82.55;100683.41;5206520;28;20029;-71
2023/03/29 08:47:37;;;;;;;6.28;2.45;;;;;;;9.33;82.43;100688.22;5202853;28;20060;-70
2023/03/29 08:50:09;;;;;;;5.13;2.30;;;;;;;9.38;83.10;100681.13;5203438;28;20041;-71
2023/03/29 08:52:45;;;;;;;4.72;2.47;;;;;;;9.71;84.77;100676.66;5199997;28;20057;-72
2023/03/29 08:55:25;;;;;;;5.57;2.50;;;;;;;9.67;83.27;100685.47;5200595;28;20029;-71
2023/03/29 08:57:59;;;;;;;6.43;3.47;;;;;;;9.70;82.25;100685.38;5198777;28;20028;-74
2023/03/29 09:00:41;;;;;;;5.20;2.92;;;;;;;9.68;81.87;100689.81;5206170;28;20025;-74
2023/03/29 09:03:30;;;;;;;6.35;2.75;;;;;;;9.70;81.85;100699.31;5198716;28;20028;-73
2023/03/29 09:06:09;;;;;;;5.47;2.10;;;;;;;9.77;81.71;100697.34;5201529;28;20088;-74
2023/03/29 09:08:46;;;;;;;4.32;2.20;;;;;;;9.85;81.66;100695.34;5200591;28;20022;-73
2023/03/29 09:11:22;;;;;;;7.60;2.75;;;;;;;9.98;82.11;100700.16;5197646;28;20494;-75
2023/03/29 09:13:58;;;;;;;6.88;2.42;;;;;;;9.92;82.05;100691.66;5199566;28;20028;-74
2023/03/29 09:16:55;;;;;;;4.65;2.33;;;;;;;9.87;82.24;100689.19;5204178;28;20363;-74
2023/03/29 09:19:44;;;;;;;;;;;;;;;10.00;82.25;100693.13;5210066;28;20025;-74
2023/03/29 09:22:27;;;;;;;5.13;2.35;;;;;;;10.02;81.10;100695.72;5206506;28;19913;-73
2023/03/29 09:25:26;;;;;;;5.60;2.80;;;;;;;10.26;81.85;100694.94;5208455;28;20023;-74
2023/03/29 09:28:27;;;;;;;6.07;2.30;;;;;;;10.23;79.98;100693.28;5204871;28;20047;-74
2023/03/29 09:31:15;;;;;;;6.38;2.70;;;;;;;10.24;80.67;100691.53;5211601;28;20028;-75
2023/03/29 09:33:56;;;;;;;5.00;2.33;;;;;;;10.17;80.88;100690.03;5202462;28;20125;-74
2023/03/29 09:36:33;;;;;;;6.65;2.50;;;;;;;10.14;81.97;100697.97;5209529;28;20064;-73
2023/03/29 09:39:04;;;;;;;10.00;3.35;;;;;;;10.09;80.33;100692.88;5209347;28;20467;-74
2023/03/29 09:41:58;;;;;;;7.28;3.10;;;;;;;10.35;81.03;100679.81;5211956;28;20445;-74
2023/03/29 09:44:37;;;;;;;7.22;3.40;;;;;;;10.56;81.15;100673.03;5204670;28;20197;-74
2023/03/29 09:47:17;;;;;;;12.02;4.22;;;;;;;10.66;81.84;100669.22;5205572;28;20028;-74
2023/03/29 09:49:50;;;;;;;8.20;3.25;;;;;;;10.70;78.93;100668.19;5209252;28;20036;-74
2023/03/29 09:52:21;;;;;;;6.32;2.60;;;;;;;10.76;80.31;100668.84;5208993;28;20029;-75
2023/03/29 09:54:52;;;;;;;6.57;2.72;;;;;;;10.65;78.53;100667.50;5205846;28;20044;-75
2023/03/29 09:57:22;;;;;;;5.80;2.80;;;;;;;10.73;79.51;100665.47;5204960;28;20041;-74
2023/03/29 09:59:53;;;;;;;6.72;2.90;;;;;;;10.80;79.81;100666.94;5202355;28;20036;-74
2023/03/29 10:02:29;;;;;;;7.45;3.00;;;;;;;10.87;79.41;100663.22;5201578;28;20487;-75
2023/03/29 10:05:03;;;;;;;5.95;2.65;;;;;;;10.86;79.41;100664.13;5208920;28;20037;-74
2023/03/29 10:07:45;;;;;;;7.55;3.30;;;;;;;10.77;78.60;100660.09;5202772;28;20025;-74
2023/03/29 10:10:27;;;;;;;4.32;2.30;;;;;;;10.85;79.13;100657.19;5202554;28;20066;-75
2023/03/29 10:13:04;;;;;;;5.00;2.25;;;;;;;10.67;78.81;100652.63;5206991;28;20094;-74
2023/03/29 10:15:35;;;;;;;4.25;2.40;;;;;;;10.77;79.99;100651.38;5205854;28;20060;-75
2023/03/29 10:18:10;;;;;;;5.40;2.67;;;;;;;10.84;80.19;100648.50;5201447;28;20517;-74
2023/03/29 10:20:40;;;;;;;8.40;2.43;;;;;;;10.45;79.90;100649.00;5206886;28;20490;-74
2023/03/29 10:23:17;;;;;;;4.68;2.40;;;;;;;10.40;79.92;100650.94;5205425;28;20029;-74
2023/03/29 10:25:47;;;;;;;5.15;2.45;;;;;;;10.44;80.56;100656.00;5203763;28;20117;-73
2023/03/29 10:28:21;;;;;;;3.80;1.92;;;;;;;10.34;80.67;100641.53;5202860;28;20104;-72
2023/03/29 10:30:58;;;;;;;7.25;2.80;;;;;;;10.31;80.70;100641.63;5192470;28;20102;-75
2023/03/29 10:33:33;;;;;;;5.10;2.28;;;;;;;10.12;80.82;100648.38;5206183;28;20029;-72
2023/03/29 10:36:05;;;;;;;5.30;2.45;;;;;;;10.46;82.93;100635.91;5204364;28;20064;-74
2023/03/29 10:38:36;;;;;;;4.10;1.70;;;;;;;10.54;81.77;100649.53;5193839;28;20120;-71
2023/03/29 10:41:11;;;;;;;6.40;2.65;;;;;;;10.62;81.24;100641.44;5196244;28;20037;-71
2023/03/29 10:43:45;;;;;;;5.83;2.80;;;;;;;10.66;81.03;100635.22;5198513;28;20605;-74
2023/03/29 10:46:24;;;;;;;4.40;2.17;;;;;;;10.78;80.55;100632.16;5200376;28;20292;-72
2023/03/29 10:48:58;;;;;;;5.50;2.20;;;;;;;10.65;80.40;100630.91;5198898;28;20470;-70
2023/03/29 10:51:31;;;;;;;5.28;2.30;;;;;;;10.82;80.80;100639.00;5200739;28;20152;-72
2023/03/29 10:54:02;;;;;;;4.07;2.00;;;;;;;11.02;79.58;100637.38;5204887;28;20037;-72
2023/03/29 10:56:40;;;;;;;4.22;2.10;;;;;;;10.87;79.57;100631.84;5194145;28;20041;-72
2023/03/29 10:59:39;;;;;;;4.95;2.08;;;;;;;10.88;79.98;100636.16;5204159;28;20482;-72
2023/03/29 11:02:12;;;;;;;5.55;2.35;;;;;;;10.79;80.70;100649.56;5203985;28;20051;-74
2023/03/29 11:05:08;;;;;;;5.45;2.60;;;;;;;10.91;80.38;100636.06;5204473;28;20106;-74
2023/03/29 11:07:38;;;;;;;7.82;2.40;;;;;;;10.97;82.61;100634.06;5200493;28;20394;-73
2023/03/29 11:10:40;;;;;;;6.50;2.77;;;;;;;11.10;81.03;100630.94;5203178;28;20025;-72
2023/03/29 11:13:24;;;;;;;5.68;2.28;;;;;;;10.93;81.02;100629.00;5201472;28;20286;-72
2023/03/29 11:16:13;;;;;;;6.50;2.60;;;;;;;11.34;82.21;100624.81;5199069;28;20461;-74
2023/03/29 11:18:59;;;;;;;7.07;2.50;;;;;;;11.71;80.27;100609.44;5195337;28;20043;-70
2023/03/29 11:21:45;;;;;;;6.00;2.42;;;;;;;11.94;79.79;100613.75;5196731;28;20021;-72
2023/03/29 11:24:45;;;;;;;4.05;2.10;;;;;;;12.28;80.20;100603.59;5195851;28;20617;-73
2023/03/29 11:27:29;;;;;;;4.28;2.10;;;;;;;12.46;78.95;100603.66;5198216;28;20048;-74
2023/03/29 11:30:12;;;;;;;5.32;2.10;;;;;;;12.24;79.12;100596.75;5202899;28;20540;-73
2023/03/29 11:33:07;;;;;;;4.25;2.10;;;;;;;12.37;78.71;100611.03;5200990;28;20045;-73
2023/03/29 11:35:59;;;;;;;4.85;1.98;;;;;;;12.73;78.95;100591.97;5201596;28;20415;-75
2023/03/29 11:38:42;;;;;;;4.75;2.20;;;;;;;12.89;78.69;100590.38;5198117;28;20060;-72
2023/03/29 11:41:24;;;;;;;4.10;2.38;;;;;;;12.59;78.16;100586.47;5200115;28;20063;-73
2023/03/29 11:44:04;;;;;;;4.55;2.30;;;;;;;12.59;79.55;100577.75;5202393;28;20045;-72
2023/03/29 11:46:54;;;;;;;3.85;2.20;;;;;;;13.01;78.93;100574.09;5202343;28;20025;-75
2023/03/29 11:49:35;;;;;;;5.35;2.17;;;;;;;13.23;79.47;100572.22;5207641;28;20044;-71
2023/03/29 11:52:18;;;;;;;3.72;1.98;;;;;;;13.33;78.64;100566.47;5202528;28;20025;-74
2023/03/29 11:54:54;;;;;;;5.97;2.17;;;;;;;13.29;78.41;100571.91;5200602;28;20045;-74
2023/03/29 11:57:30;;;;;;;6.50;2.10;;;;;;;13.35;77.91;100572.50;5206481;28;20708;-75
2023/03/29 12:00:11;;;;;;;4.35;2.10;;;;;;;13.02;75.91;100575.81;5209428;28;20094;-73
2023/03/29 12:02:46;;;;;;;6.85;2.40;;;;;;;13.00;76.02;100578.50;5205780;28;20025;-75
2023/03/29 12:05:26;;;;;;;4.95;2.00;;;;;;;12.97;77.94;100567.28;5210840;28;20064;-75